• Join FlightAware (Why Join?)
  • Login
  • US Flag 
06:08PM EST


 

Airport Tracker/Info


-or-


 

Live Flight TrackerFlight Track Log ✈ SWA383 ✈ 26-Apr-2013 ✈ KHOU - KATL

Flight Track Log - Related Links

Times and Time Zones

All times are in EDT time to prevent confusion due to time zone crossing. See the SWA383 flight status page for this flight to view local times or setup timezone preferences in your user account.

Time Position Orientation Groundspeed Altitude Reporting Facility
EDT Latitude Longitude Course Direction KTS MPH feet Rate Location/Type
07:07AM 29.6333 -95.2653 150° Southeast 142 163 800  Level Houston Center
07:07AM 29.6086 -95.2492 150° Southeast 197 227 1,900 2,280 Climbing Houston Center
07:08AM 29.5819 -95.2303 148° Southeast 212 244 3,500 2,700 Climbing Houston Center
07:08AM 29.5822 -95.1897 90° East 292 336 4,700 2,700 Climbing Houston Center
07:09AM 29.5878 -95.1433 82° East 285 328 6,300 3,900 Climbing Houston Center
07:09AM 29.5981 -95.0917 77° East 300 345 8,700 3,900 Climbing Houston Center
07:10AM 29.6047 -95.0525 79° East 298 343 10,300 2,580 Climbing Houston Center
07:11AM 29.6219 -94.9511 79° East 322 371 12,800 3,000 Climbing Houston Center
07:12AM 29.6397 -94.8394 80° East 351 404 16,400 2,940 Climbing Houston Center
07:13AM 29.6411 -94.7261 89° East 361 415 18,800 2,400 Climbing Houston Center
07:14AM 29.6319 -94.6072 95° East 372 428 21,300 2,520 Climbing Houston Center
07:15AM 29.6194 -94.4594 96° East 386 444 23,900 2,040 Climbing Houston Center
07:16AM 29.6111 -94.3272 94° East 410 472 25,500 1,500 Climbing Houston Center
07:17AM 29.6025 -94.1894 94° East 429 494 27,000 1,440 Climbing Houston Center
07:18AM 29.5969 -94.0625 93° East 446 513 28,500 1,380 Climbing Houston Center
07:19AM 29.5922 -93.9167 92° East 458 527 29,800 1,260 Climbing Houston Center
07:20AM 29.5864 -93.7653 92° East 473 544 31,100 1,200 Climbing Houston Center
07:21AM 29.5781 -93.5817 93° East 484 557 32,300 1,260 Climbing Houston Center
07:22AM 29.5717 -93.4219 93° East 500 575 33,700 1,260 Climbing Houston Center
07:23AM 29.5672 -93.2653 92° East 498 573 34,900 1,260 Climbing Houston Center
07:24AM 29.5617 -93.1083 92° East 496 571 36,300 1,020 Climbing Houston Center
07:25AM 29.5731 -92.9539 85° East 493 567 37,000 300 Climbing Houston Center
07:26AM 29.6269 -92.8086 67° East 500 575 37,000  Level Houston Center
07:27AM 29.6789 -92.6631 68° East 499 574 37,000  Level Houston Center
07:28AM 29.7319 -92.5183 67° East 495 570 37,000  Level Houston Center
07:29AM 29.7828 -92.3733 68° East 493 567 37,000  Level Houston Center
07:30AM 29.8350 -92.2289 67° East 491 565 37,000  Level Houston Center
07:31AM 29.8956 -92.0575 68° East 487 560 37,000  Level Houston Center
07:32AM 29.9461 -91.9142 68° East 485 558 37,000  Level Houston Center
07:33AM 29.9964 -91.7708 68° East 484 557 37,000  Level Houston Center
07:34AM 30.0492 -91.6253 67° East 488 562 37,000  Level Houston Center
07:35AM 30.0989 -91.4789 69° East 485 558 37,000  Level Houston Center
07:36AM 30.1508 -91.3353 67° East 490 564 37,000  Level Houston Center
07:37AM 30.2008 -91.1900 68° East 489 563 37,000  Level Houston Center
07:38AM 30.2514 -91.0442 68° East 489 563 37,000  Level Houston Center
07:39AM 30.3014 -90.8978 68° East 489 563 37,000  Level Houston Center
07:40AM 30.3511 -90.7517 68° East 489 563 37,000  Level Houston Center
07:41AM 30.4006 -90.6058 69° East 487 560 37,000  Level Houston Center
07:42AM 30.4508 -90.4594 68° East 488 562 37,000  Level Houston Center
07:43AM 30.5000 -90.3119 69° East 490 564 37,000  Level Houston Center
07:44AM 30.5503 -90.1625 69° East 493 567 37,000  Level Houston Center
07:45AM 30.6017 -90.0114 68° East 498 573 37,000  Level Houston Center
07:46AM 30.6628 -89.8281 69° East 500 575 37,000  Level Houston Center
07:47AM 30.7139 -89.6761 69° East 501 577 37,000  Level Houston Center
07:48AM 30.7636 -89.5236 69° East 502 578 37,000  Level Houston Center
07:49AM 30.8119 -89.3703 70° East 503 579 37,000  Level Houston Center
07:50AM 30.8617 -89.2167 69° East 506 582 37,000  Level Houston Center
07:51AM 30.9119 -89.0631 69° East 506 582 37,000  Level Houston Center
07:52AM 30.9592 -88.9128 70° East 504 580 37,000  Level Houston Center
07:53AM 31.0086 -88.7578 70° East 506 582 37,000  Level Houston Center
07:54AM 31.0600 -88.6019 69° East 506 582 37,000  Level Houston Center
07:55AM 31.1164 -88.4506 66° East 508 585 37,000  Level Houston Center
07:56AM 31.1917 -88.3469 50° Northeast 502 578 37,000  Level Atlanta Center
07:57AM 31.2714 -88.2125 55° Northeast 494 568 37,000  Level Atlanta Center
07:58AM 31.3508 -88.0822 54° Northeast 494 568 37,000  Level Atlanta Center
07:59AM 31.3647 -88.0533 61° Northeast 499 574 37,000  Level Houston Center
07:59AM 31.4322 -87.9497 53° Northeast 494 568 37,000  Level Atlanta Center
08:00AM 31.5136 -87.8167 54° Northeast 494 568 37,000  Level Atlanta Center
08:01AM 31.5925 -87.6883 54° Northeast 494 568 37,000 -360 Level Atlanta Center
08:02AM 31.6714 -87.5575 55° Northeast 489 563 36,300 -900 Descending Atlanta Center
08:03AM 31.7503 -87.4261 55° Northeast 489 563 35,300 -900 Descending Atlanta Center
08:04AM 31.8161 -87.3114 56° Northeast 489 563 34,500 -900 Descending Atlanta Center
08:05AM 31.8967 -87.1772 55° Northeast 483 556 33,500 -960 Descending Atlanta Center
08:06AM 31.9750 -87.0453 55° Northeast 483 556 32,600 -900 Descending Atlanta Center
08:07AM 32.0619 -86.9036 54° Northeast 483 556 31,700 -960 Descending Atlanta Center
08:08AM 32.1400 -86.7714 55° Northeast 488 562 30,700 -1,140 Descending Atlanta Center
08:09AM 32.2158 -86.6508 53° Northeast 477 549 29,500 -1,500 Descending Atlanta Center
08:10AM 32.2828 -86.5375 55° Northeast 452 520 27,800 -1,680 Descending Atlanta Center
08:11AM 32.3453 -86.4333 55° Northeast 418 481 26,200 -1,560 Descending Atlanta Center
08:12AM 32.3931 -86.3364 60° Northeast 391 450 24,700 -1,140 Descending Atlanta Center
08:13AM 32.4514 -86.2319 56° Northeast 381 438 24,000 -360 Descending Atlanta Center
08:14AM 32.5286 -86.1133 52° Northeast 398 458 24,000  Level Atlanta Center
08:15AM 32.5994 -85.9892 56° Northeast 427 491 24,000  Level Atlanta Center
08:16AM 32.6725 -85.8625 56° Northeast 449 517 24,000 -540 Level Atlanta Center
08:17AM 32.7453 -85.7331 56° Northeast 460 529 23,000 -1,140 Descending Atlanta Center
08:18AM 32.8178 -85.6108 55° Northeast 460 529 21,800 -1,080 Descending Atlanta Center
08:19AM 32.8819 -85.4958 56° Northeast 436 502 20,900 -1,380 Descending Atlanta Center
08:20AM 32.9458 -85.3806 57° Northeast 421 484 19,100 -1,740 Descending Atlanta Center
08:21AM 33.0094 -85.2750 54° Northeast 409 471 17,500 -1,980 Descending Atlanta Center
08:22AM 33.0731 -85.1792 52° Northeast 382 440 15,200 -2,160 Descending Atlanta Center
08:23AM 33.1406 -85.0883 48° Northeast 362 417 13,200 -1,680 Descending Atlanta Center
08:24AM 33.2039 -85.0022 49° Northeast 349 402 11,900 -1,500 Descending Atlanta Center
08:25AM 33.2608 -84.9283 47° Northeast 317 365 10,300 -1,500 Descending Atlanta Center
08:26AM 33.3114 -84.8617 48° Northeast 304 350 9,000 -1,440 Descending Atlanta Center
08:27AM 33.3661 -84.7975 44° Northeast 289 333 7,500 -1,320 Descending Atlanta Center
08:28AM 33.4333 -84.7833 10° North 263 303 6,700 -960 Descending Atlanta TRACON
08:29AM 33.4833 -84.7833 360° North 228 262 6,000 -960 Descending Atlanta TRACON
08:30AM 33.5500 -84.7667 12° North 225 259 4,900 -840 Descending Atlanta TRACON
08:31AM 33.6000 -84.7333 29° Northeast 185 213 4,400 -600 Descending Atlanta TRACON
08:32AM 33.6167 -84.6833 68° East 171 197 3,700 -660 Descending Atlanta TRACON
08:33AM 33.6167 -84.6333 90° East 160 184 3,100 -420 Descending Atlanta TRACON
08:34AM 33.6167 -84.5833 90° East 151 174 3,000 -300 Descending Atlanta TRACON
08:35AM 33.6167 -84.5500 90° East 115 132 2,600 -540 Descending Atlanta TRACON
08:36AM 33.6167 -84.5000 90° East 107 123 2,000 -600 Descending Atlanta TRACON
08:37AM 33.6167 -84.4667 90° East 117 135 1,400 -600 Descending Atlanta TRACON
08:39AM 33.6367 -84.4279 90° East  Level Estimated
08:46AM 33.6367 -84.4279 301° West  Level Estimated